Latest Weather Observations for Hopetoun Airport

IDV60801

Issued at 1:05 pm EDT Saturday 22 November 2014 (issued every 30 minutes, with the page automatically refreshed every 10 minutes)

About weather observations | Map of weather stations | Latest weather observations for VIC | Other Formats
Station Details ID: 077010 Name: HOPETOUN AIRPORT Lat: -35.72 Lon: 142.36 Height: 77.3 m
Data from the previous 72 hours. | See also: Recent months at Hopetoun Airport
Date/Time
EDT
Temp
°C
App
Temp
°C
Dew
Point
Rel
Hum
%
Delta-T
°C
Wind Press
QNH
hPa
Press
MSL
hPa
Rain
since 9 am
mm
Dir
 
Spd
km/h
Gust
km/h
Spd
kts
Gust
kts
22/01:00pm 24.8 21.4 12.4 46 7.1 N 22 30 12 16 1009.6 1009.4 0.4
22/12:30pm 22.6 20.3 14.2 59 4.9 NE 19 24 10 13 1009.7 1009.5 0.4
22/12:00pm 20.9 18.5 12.8 60 4.6 N 17 24 9 13 1011.6 1011.4 0.4
22/11:30am 22.1 20.1 12.6 55 5.4 NNW 15 17 8 9 1012.2 1012.0 0.0
22/11:00am 23.2 20.1 10.3 44 7.1 NNW 17 26 9 14 1012.1 1011.9 0.0
22/10:30am 25.9 20.6 4.9 26 10.7 N 22 28 12 15 1011.2 1011.0 0.0
22/10:00am 25.3 20.5 4.4 26 10.5 N 19 24 10 13 1010.7 1010.5 0.0
22/09:30am 24.1 19.2 5.0 29 9.6 NNE 20 28 11 15 1010.4 1010.2 0.0
22/09:00am 23.0 16.9 5.0 31 9.0 NNE 26 33 14 18 1009.8 1009.6 0.0
22/08:30am 21.7 16.3 4.7 33 8.4 NNE 22 30 12 16 1009.8 1009.6 0.0
22/08:00am 21.0 16.1 5.0 35 7.9 NE 20 26 11 14 1009.4 1009.2 0.0
22/07:30am 19.2 14.8 4.9 39 6.9 NNE 17 20 9 11 1009.5 1009.3 0.0
22/07:00am 16.3 12.1 5.6 49 5.2 NE 17 19 9 10 1009.4 1009.2 0.0
22/06:30am 13.9 10.4 5.5 57 4.0 NE 13 15 7 8 1009.3 1009.1 0.0
22/06:00am 12.4 9.6 5.3 62 3.3 ENE 9 11 5 6 1009.3 1009.1 0.0
22/05:30am 12.1 9.3 5.3 63 3.2 E 9 11 5 6 1009.1 1008.9 0.0
22/05:00am 12.4 9.6 5.3 62 3.3 ENE 9 9 5 5 1009.1 1008.9 0.0
22/04:30am 11.8 9.3 4.8 62 3.2 E 7 7 4 4 1009.4 1009.2 0.0
22/04:00am 12.1 9.8 4.8 61 3.4 ENE 6 6 3 3 1009.5 1009.3 0.0
22/03:30am 12.1 9.8 4.8 61 3.3 E 6 7 3 4 1009.6 1009.4 0.0
22/03:00am 12.9 10.6 4.8 58 3.7 E 6 6 3 3 1009.9 1009.7 0.0
22/02:30am 12.7 10.5 5.1 60 3.5 ENE 6 7 3 4 1010.3 1010.1 0.0
22/02:00am 12.9 11.7 4.8 58 3.7 CALM 0 0 0 0 1010.5 1010.3 0.0
22/01:30am 14.0 12.9 5.1 55 4.2 CALM 0 0 0 0 1010.9 1010.7 0.0
22/01:00am 15.9 14.0 4.9 48 5.2 SSE 4 6 2 3 1011.3 1011.1 0.0
22/12:30am 15.9 14.8 5.2 49 5.1 CALM 0 0 0 0 1011.6 1011.4 0.0
22/12:00am 15.9 14.8 4.9 48 5.2 SE 0 0 0 0 1011.8 1011.6 0.0
 
Date/Time
EDT
Temp
°C
App
Temp
°C
Dew
Point
Rel
Hum
%
Delta-T
°C
Wind Press
QNH
hPa
Press
MSL
hPa
Rain
since 9 am
mm
Dir
 
Spd
km/h
Gust
km/h
Spd
kts
Gust
kts
21/11:30pm 15.5 14.2 4.3 47 5.2 CALM 0 0 0 0 1012.0 1011.8 0.0
21/11:00pm 18.1 16.2 4.7 41 6.4 S 4 6 2 3 1012.0 1011.8 0.0
21/10:30pm 20.3 18.4 4.8 36 7.6 S 4 6 2 3 1012.0 1011.8 0.0
21/10:00pm 20.5 18.1 4.5 35 7.8 S 6 6 3 3 1011.8 1011.6 0.0
21/09:30pm 22.0 20.0 4.6 32 8.6 S 4 6 2 3 1011.5 1011.3 0.0
21/09:00pm 22.6 20.3 4.6 31 8.9 S 6 7 3 4 1011.4 1011.2 0.0
21/08:30pm 22.9 20.0 4.4 30 9.1 SW 9 11 5 6 1011.5 1011.3 0.0
21/08:00pm 24.6 21.3 4.4 27 10.1 SW 11 13 6 7 1011.2 1011.0 0.0
21/07:30pm 25.2 21.1 4.3 26 10.5 WSW 15 20 8 11 1010.9 1010.7 0.0
21/07:00pm 25.7 22.3 4.2 25 10.8 WSW 11 17 6 9 1010.4 1010.2 0.0
21/06:30pm 26.0 22.0 5.0 26 10.7 WSW 15 26 8 14 1010.2 1010.0 0.0
21/06:00pm 26.3 23.4 4.7 25 11.0 W 9 17 5 9 1010.1 1009.9 0.0
21/05:30pm 27.0 23.5 5.3 25 11.2 W 13 24 7 13 1010.1 1009.9 0.0
21/05:00pm 26.3 22.8 5.3 26 10.8 W 13 26 7 14 1010.2 1010.0 0.0
21/04:30pm 25.6 21.7 5.2 27 10.4 WSW 15 28 8 15 1010.6 1010.4 0.0
21/04:00pm 26.1 20.8 5.1 26 10.7 W 22 30 12 16 1010.7 1010.5 0.0
21/03:30pm 25.0 20.8 5.7 29 9.9 W 17 30 9 16 1011.2 1011.0 0.0
21/03:00pm 24.2 20.3 5.5 30 9.5 SW 15 33 8 18 1011.3 1011.1 0.0
21/02:30pm 24.5 21.2 6.3 31 9.4 WSW 13 26 7 14 1011.7 1011.5 0.0
21/02:00pm 23.9 20.9 6.2 32 9.1 W 11 22 6 12 1012.0 1011.8 0.0
21/01:30pm 22.1 18.3 5.9 35 8.2 WSW 15 26 8 14 1012.3 1012.1 0.0
21/01:00pm 21.5 17.8 6.2 37 7.7 SW 15 24 8 13 1012.6 1012.4 0.0
21/12:30pm 21.2 17.5 6.3 38 7.5 SW 15 22 8 12 1012.8 1012.6 0.0
21/12:00pm 21.0 17.1 6.9 40 7.2 WSW 17 30 9 16 1012.8 1012.6 0.0
21/11:30am 19.3 16.1 8.3 49 5.7 SW 15 30 8 16 1012.9 1012.7 0.0
21/11:00am 18.9 14.8 8.0 49 5.6 WSW 19 32 10 17 1013.2 1013.0 0.0
21/10:30am 18.7 14.7 8.9 53 5.1 SSW 20 33 11 18 1013.2 1013.0 0.0
21/10:00am 17.6 13.1 8.7 56 4.6 SW 22 30 12 16 1013.1 1012.9 0.0
21/09:30am 16.9 13.1 9.8 63 3.7 SSW 20 26 11 14 1012.8 1012.6 0.0
21/09:00am 16.9 13.7 9.8 63 3.7 SSW 17 22 9 12 1012.6 1012.4 0.0
21/08:30am 15.7 11.8 9.6 67 3.2 WSW 20 26 11 14 1012.5 1012.3 0.0
21/08:00am 15.8 12.3 11.0 73 2.6 SW 20 24 11 13 1012.2 1012.0 0.0
21/07:30am 15.1 11.4 11.5 79 1.9 SW 22 32 12 17 1012.0 1011.8 0.0
21/07:00am 14.9 11.5 12.4 85 1.4 WSW 22 26 12 14 1011.4 1011.2 0.0
21/06:30am 14.9 12.2 13.4 91 0.8 W 20 32 11 17 1010.8 1010.6 0.0
21/06:00am 14.9 12.2 13.6 92 0.7 W 20 26 11 14 1010.6 1010.4 0.0
21/05:30am 15.6 13.7 12.9 84 1.5 W 15 19 8 10 1010.2 1010.0 0.0
21/05:00am 15.7 13.7 12.6 82 1.7 W 15 19 8 10 1009.9 1009.7 0.0
21/04:30am 15.8 12.8 12.5 81 1.8 WSW 20 26 11 14 1009.7 1009.5 0.0
21/04:00am 15.8 12.9 12.4 80 1.9 WSW 19 24 10 13 1009.4 1009.2 0.0
21/03:30am 15.7 12.9 12.5 81 1.8 SW 19 24 10 13 1009.4 1009.2 0.0
21/03:00am 15.4 11.1 12.2 81 1.8 WSW 26 35 14 19 1009.1 1008.9 0.0
21/02:30am 15.6 11.3 12.0 79 2.0 SW 26 33 14 18 1009.1 1008.9 0.0
21/02:00am 15.8 11.2 12.4 80 1.9 WSW 28 37 15 20 1009.2 1009.0 0.0
21/01:30am 16.0 11.9 12.6 80 1.9 SW 26 37 14 20 1009.3 1009.1 0.0
21/01:00am 16.8 13.0 13.7 82 1.8 WSW 26 35 14 19 1009.1 1008.9 0.0
21/12:30am 17.3 14.4 14.0 81 1.9 WSW 22 35 12 19 1008.9 1008.7 0.0
21/12:00am 18.4 16.0 15.3 82 1.8 W 22 28 12 15 1008.7 1008.5 0.0
 
Date/Time
EDT
Temp
°C
App
Temp
°C
Dew
Point
Rel
Hum
%
Delta-T
°C
Wind Press
QNH
hPa
Press
MSL
hPa
Rain
since 9 am
mm
Dir
 
Spd
km/h
Gust
km/h
Spd
kts
Gust
kts
20/11:30pm 19.4 18.5 16.8 85 1.6 WSW 17 22 9 12 1008.6 1008.4 0.0
20/11:00pm 20.1 18.9 17.1 83 1.8 WSW 19 26 10 14 1008.2 1008.0 0.0
20/10:30pm 19.2 19.5 16.1 82 1.9 W 9 13 5 7 1008.0 1007.8 0.0
20/10:00pm 18.5 18.6 15.4 82 1.8 WNW 9 11 5 6 1007.7 1007.5 0.0
20/09:30pm 20.1 20.0 16.1 78 2.4 NW 11 13 6 7 1007.4 1007.2 0.0
20/09:00pm 20.7 21.3 16.7 78 2.4 N 9 11 5 6 1006.8 1006.6 0.0
20/08:30pm 21.3 21.6 16.9 76 2.7 N 11 15 6 8 1006.9 1006.7 0.0
20/08:00pm 22.2 21.4 16.2 69 3.6 NNW 15 20 8 11 1007.0 1006.8 0.0
20/07:30pm 22.0 20.1 15.8 68 3.7 NNW 20 30 11 16 1007.0 1006.8 0.0
20/07:00pm 21.7 19.9 16.0 70 3.4 NNW 20 28 11 15 1007.0 1006.8 0.0
20/06:30pm 21.4 19.2 17.0 76 2.7 NNW 24 32 13 17 1007.0 1006.8 0.0
20/06:00pm 21.2 17.9 17.0 77 2.6 NNW 30 37 16 20 1007.4 1007.2 0.0
20/05:30pm 22.6 19.8 16.4 68 3.8 NNW 26 32 14 17 1007.8 1007.6 0.0
20/05:00pm 22.4 20.2 16.9 71 3.4 NW 24 35 13 19 1007.9 1007.7 0.0
20/04:30pm 23.0 21.2 16.1 65 4.2 W 20 32 11 17 1008.2 1008.0 0.0
20/04:00pm 23.8 21.5 15.8 61 4.9 W 22 28 12 15 1008.0 1007.8 0.0
20/03:30pm 24.6 19.8 15.5 57 5.5 WSW 35 44 19 24 1008.4 1008.2 0.0
20/03:00pm 25.8 20.0 14.0 48 7.0 W 37 50 20 27 1008.3 1008.1 0.0
20/02:30pm 26.1 20.4 12.9 44 7.7 W 35 44 19 24 1008.4 1008.2 0.0
20/02:00pm 26.8 21.6 12.8 42 8.2 WSW 32 44 17 24 1007.7 1007.5 0.0
20/01:30pm 26.1 22.5 13.2 44 7.6 SSW 24 32 13 17 1007.4 1007.2 0.0
20/01:00pm 26.5 20.8 12.9 43 8.0 SW 35 43 19 23 1007.6 1007.4 0.0
20/12:30pm 27.7 21.5 10.0 33 9.9 SW 33 41 18 22 1007.6 1007.4 0.0
20/12:01pm 28.1 20.3 6.8 26 11.3 W 37 57 20 31 1007.8 1007.6 0.0
20/12:00pm 28.3 20.4 6.4 25 11.6 W 37 48 20 26 1007.8 1007.6 0.0
20/11:44am 29.0 20.8 4.5 21 12.6 W 37 56 20 30 1007.4 1007.2 0.0
20/11:30am 29.3 22.5 3.3 19 13.1 WNW 28 39 15 21 1007.4 1007.2 0.0
20/11:00am 29.6 23.3 3.6 19 13.3 NW 26 35 14 19 1007.0 1006.8 0.0
20/10:30am 28.9 22.2 3.7 20 12.8 NNW 28 35 15 19 1007.1 1006.9 0.0
20/10:00am 28.9 21.7 3.0 19 13.0 NNW 30 37 16 20 1007.0 1006.8 0.0
20/09:30am 29.0 21.2 3.1 19 13.0 NNW 33 41 18 22 1007.3 1007.1 0.0
20/09:00am 28.3 21.9 3.2 20 12.6 N 26 37 14 20 1007.2 1007.0 0.0
20/08:30am 26.2 20.6 3.5 23 11.3 N 22 32 12 17 1007.4 1007.2 0.0
20/08:00am 24.4 19.3 3.1 25 10.4 N 19 28 10 15 1007.5 1007.3 0.0
20/07:30am 22.8 18.1 3.4 28 9.4 N 17 22 9 12 1007.3 1007.1 0.0
20/07:00am 21.5 17.2 3.2 30 8.8 N 15 19 8 10 1007.3 1007.1 0.0
20/06:30am 21.7 17.3 2.9 29 8.9 N 15 20 8 11 1007.5 1007.3 0.0
20/06:00am 21.4 17.4 3.1 30 8.7 NNE 13 17 7 9 1007.3 1007.1 0.0
20/05:30am 21.1 16.7 2.9 30 8.6 NNE 15 17 8 9 1007.4 1007.2 0.0
20/05:00am 21.2 16.8 2.5 29 8.8 NNE 15 20 8 11 1007.3 1007.1 0.0
20/04:30am 21.1 16.6 2.4 29 8.8 NNE 15 20 8 11 1007.5 1007.3 0.0
20/04:00am 21.4 16.2 2.6 29 8.9 NNE 19 22 10 12 1007.4 1007.2 0.0
20/03:30am 21.3 16.2 3.0 30 8.7 NNE 19 24 10 13 1007.8 1007.6 0.0
20/03:00am 20.2 16.4 3.9 34 7.8 N 13 19 7 10 1008.2 1008.0 0.0
20/02:30am 19.5 15.6 3.6 35 7.5 NNE 13 17 7 9 1008.6 1008.4 0.0
20/02:00am 20.6 16.7 3.3 32 8.2 N 13 15 7 8 1009.2 1009.0 0.0
20/01:30am 20.1 15.8 3.3 33 8.0 NNE 15 19 8 10 1009.5 1009.3 0.0
20/01:00am 20.1 16.2 3.3 33 8.0 NNE 13 15 7 8 1009.5 1009.3 0.0
20/12:30am 21.3 17.3 3.0 30 8.7 N 13 15 7 8 1010.0 1009.8 0.0
20/12:00am 20.1 16.3 3.8 34 7.8 NNE 13 15 7 8 1010.0 1009.8 0.0
 
Date/Time
EDT
Temp
°C
App
Temp
°C
Dew
Point
Rel
Hum
%
Delta-T
°C
Wind Press
QNH
hPa
Press
MSL
hPa
Rain
since 9 am
mm
Dir
 
Spd
km/h
Gust
km/h
Spd
kts
Gust
kts
19/11:30pm 19.4 16.0 4.0 36 7.4 NE 11 15 6 8 1010.3 1010.1 0.0
19/11:00pm 21.9 19.5 2.1 27 9.3 NE 4 7 2 4 1010.7 1010.5 0.0
19/10:30pm 21.1 18.4 2.9 30 8.6 NNE 6 6 3 3 1010.9 1010.7 0.0
19/10:00pm 22.1 19.5 3.3 29 9.0 NNE 6 6 3 3 1010.9 1010.7 0.0
19/09:30pm 22.4 19.8 3.0 28 9.3 N 6 7 3 4 1010.9 1010.7 0.0
19/09:00pm 23.5 20.6 2.4 25 10.1 N 7 9 4 5 1010.8 1010.6 0.0
19/08:30pm 26.2 22.4 1.5 20 11.8 N 11 11 6 6 1010.8 1010.6 0.0
19/08:00pm 28.0 23.7 0.7 17 13.1 NNW 13 15 7 8 1010.7 1010.5 0.0
19/07:30pm 31.0 26.2 0.4 14 14.9 NNW 15 19 8 10 1010.5 1010.3 0.0
19/07:00pm 31.6 26.9 0.9 14 15.1 NW 15 19 8 10 1010.6 1010.4 0.0
19/06:30pm 31.7 26.1 1.0 14 15.1 NNW 20 28 11 15 1010.6 1010.4 0.0
19/06:00pm 32.1 26.7 1.3 14 15.3 NW 19 24 10 13 1011.1 1010.9 0.0
19/05:30pm 32.3 25.4 0.4 13 15.6 NW 26 35 14 19 1011.2 1011.0 0.0
19/05:00pm 31.0 25.6 1.4 15 14.6 N 19 28 10 15 1011.7 1011.5 0.0
19/04:30pm 31.0 27.1 1.4 15 14.6 NNW 11 24 6 13 1012.4 1012.2 0.0
19/04:00pm 31.1 25.2 1.4 15 14.7 NNW 22 33 12 18 1012.8 1012.6 0.0
19/03:30pm 31.3 25.4 1.6 15 14.7 NNW 22 37 12 20 1013.2 1013.0 0.0
19/03:00pm 30.1 25.9 1.5 16 14.1 NNW 13 22 7 12 1013.7 1013.5 0.0
19/02:30pm 29.1 23.7 2.4 18 13.3 N 20 35 11 19 1014.5 1014.3 0.0
19/02:00pm 29.0 25.6 3.8 20 12.8 N 11 20 6 11 1015.1 1014.9 0.0
19/01:30pm 28.3 24.1 3.9 21 12.4 NW 15 30 8 16 1015.4 1015.2 0.0

Other Formats:

Comma delimited format used in spreadsheet applications
http://www.bom.gov.au/fwo/IDV60801/IDV60801.94838.axf

JavaScript Object Notation format (JSON) in row-major order
http://www.bom.gov.au/fwo/IDV60801/IDV60801.94838.json